createdAt,value
2023-05-17T00:02:24.284Z,5.20
2023-05-17T00:04:53.705Z,6.80
2023-05-17T00:07:21.761Z,4.28
2023-05-17T00:09:49.701Z,6.18
2023-05-17T00:12:17.620Z,6.07
2023-05-17T00:14:45.750Z,6.80
2023-05-17T00:17:13.699Z,9.23
2023-05-17T00:19:41.927Z,7.07
2023-05-17T00:22:09.849Z,4.78
2023-05-17T00:24:37.790Z,5.03
2023-05-17T00:27:06.046Z,5.95
2023-05-17T00:29:33.931Z,7.90
2023-05-17T00:32:01.987Z,7.75
2023-05-17T00:34:29.927Z,8.80
2023-05-17T00:36:57.868Z,6.22
2023-05-17T00:39:25.786Z,6.60
2023-05-17T00:41:53.711Z,7.18
2023-05-17T00:44:21.698Z,6.75
2023-05-17T00:46:50.685Z,6.47
2023-05-17T00:49:19.452Z,4.82
2023-05-17T00:51:47.579Z,7.13
2023-05-17T00:54:16.347Z,5.72
2023-05-17T00:56:44.666Z,7.60
2023-05-17T00:59:14.346Z,5.57
2023-05-17T01:01:43.627Z,5.93
2023-05-17T01:04:13.623Z,5.60
2023-05-17T01:06:41.928Z,4.85
2023-05-17T01:09:10.354Z,7.55
2023-05-17T01:12:02.044Z,4.75
2023-05-17T01:14:51.944Z,8.32
2023-05-17T01:17:33.491Z,6.13
2023-05-17T01:20:07.754Z,9.25
2023-05-17T01:22:53.863Z,7.57
2023-05-17T01:25:45.095Z,10.20
2023-05-17T01:28:15.098Z,8.80
2023-05-17T01:30:45.905Z,8.65
2023-05-17T01:33:14.764Z,8.80
2023-05-17T01:35:42.774Z,6.93
2023-05-17T01:38:10.882Z,11.52
2023-05-17T01:40:45.398Z,7.68
2023-05-17T01:43:25.225Z,7.63
2023-05-17T01:46:27.220Z,8.40
2023-05-17T01:49:11.498Z,10.00
2023-05-17T01:51:49.438Z,10.15
2023-05-17T01:54:23.600Z,9.40
2023-05-17T01:56:58.874Z,8.02
2023-05-17T01:59:27.963Z,13.00
2023-05-17T02:02:04.240Z,12.48
2023-05-17T02:04:33.244Z,11.50
2023-05-17T02:07:06.002Z,15.95
2023-05-17T02:09:33.934Z,13.05
2023-05-17T02:12:01.862Z,14.05
2023-05-17T02:14:30.309Z,17.50
2023-05-17T02:16:58.600Z,16.88
2023-05-17T02:19:26.787Z,14.60
2023-05-17T02:21:54.798Z,12.60
2023-05-17T02:24:23.437Z,14.88
2023-05-17T02:26:51.402Z,16.65
2023-05-17T02:29:19.367Z,16.55
2023-05-17T02:31:47.332Z,17.23
2023-05-17T02:34:15.271Z,18.27
2023-05-17T02:36:44.701Z,16.45
2023-05-17T02:39:13.798Z,16.52
2023-05-17T02:41:41.786Z,16.38
2023-05-17T02:44:09.625Z,16.25
2023-05-17T02:46:38.578Z,14.20
2023-05-17T02:49:06.866Z,14.20
2023-05-17T02:51:34.786Z,15.27
2023-05-17T02:54:02.755Z,16.05
2023-05-17T02:56:31.189Z,17.75
2023-05-17T02:59:01.422Z,15.82
2023-05-17T03:01:30.026Z,17.17
2023-05-17T03:03:58.198Z,16.10
2023-05-17T03:06:26.134Z,16.90
2023-05-17T03:08:54.272Z,18.35
2023-05-17T03:11:23.168Z,14.95
2023-05-17T03:13:52.103Z,13.48
2023-05-17T03:16:23.881Z,15.77
2023-05-17T03:18:53.193Z,16.85
2023-05-17T03:21:21.630Z,14.63
2023-05-17T03:23:50.941Z,15.80
2023-05-17T03:26:20.023Z,16.73
2023-05-17T03:28:51.496Z,17.55
2023-05-17T03:31:20.692Z,16.30
2023-05-17T03:33:48.832Z,14.15
2023-05-17T03:36:18.068Z,16.48
2023-05-17T03:38:46.240Z,18.20
2023-05-17T03:41:14.297Z,15.93
2023-05-17T03:43:42.640Z,14.85
2023-05-17T03:46:12.904Z,19.80
2023-05-17T03:48:41.698Z,17.23
2023-05-17T03:51:11.076Z,21.85
2023-05-17T03:53:43.378Z,18.55
2023-05-17T03:56:11.624Z,18.63
2023-05-17T03:58:39.656Z,19.15
2023-05-17T04:01:07.663Z,18.80
2023-05-17T04:03:37.547Z,18.15
2023-05-17T04:06:07.107Z,19.58
2023-05-17T04:08:36.357Z,15.93
2023-05-17T04:11:14.240Z,19.65
2023-05-17T04:13:43.397Z,15.15
2023-05-17T04:16:11.370Z,18.13
2023-05-17T04:18:41.956Z,22.52
2023-05-17T04:21:10.454Z,18.02
2023-05-17T04:23:40.149Z,18.35
2023-05-17T04:26:08.072Z,20.88
2023-05-17T04:28:39.672Z,18.98
2023-05-17T04:31:08.747Z,17.27
2023-05-17T04:33:37.663Z,19.33
2023-05-17T04:36:07.766Z,19.17
2023-05-17T04:38:36.925Z,21.88
2023-05-17T04:41:07.071Z,18.63
2023-05-17T04:43:38.432Z,17.13
2023-05-17T04:46:10.535Z,16.38
2023-05-17T04:48:39.481Z,19.80
2023-05-17T04:51:08.023Z,18.48
2023-05-17T04:53:36.869Z,18.20
2023-05-17T04:56:10.332Z,15.65
2023-05-17T04:58:38.266Z,17.08
2023-05-17T05:01:06.430Z,16.90
2023-05-17T05:03:35.683Z,13.00
2023-05-17T05:06:05.111Z,16.92
2023-05-17T05:08:34.746Z,12.85
2023-05-17T05:11:02.973Z,11.80
2023-05-17T05:13:32.325Z,14.65
2023-05-17T05:16:00.284Z,15.20
2023-05-17T05:18:28.374Z,14.25
2023-05-17T05:20:57.626Z,16.02
2023-05-17T05:23:26.265Z,12.82
2023-05-17T05:25:54.235Z,12.80
2023-05-17T05:28:22.311Z,12.55
2023-05-17T05:30:50.749Z,12.70
2023-05-17T05:33:20.359Z,11.38
2023-05-17T05:35:48.765Z,9.93
2023-05-17T05:38:16.858Z,12.25
2023-05-17T05:40:48.295Z,11.43
2023-05-17T05:43:16.704Z,9.88
2023-05-17T05:45:48.467Z,13.35
2023-05-17T05:48:16.683Z,8.93
2023-05-17T05:50:45.081Z,12.88
2023-05-17T05:53:18.577Z,11.68
2023-05-17T05:55:56.335Z,11.80
2023-05-17T05:58:24.342Z,10.07
2023-05-17T06:00:52.964Z,10.55
2023-05-17T06:03:21.063Z,8.98
2023-05-17T06:05:49.331Z,9.30
2023-05-17T06:08:17.504Z,11.20
2023-05-17T06:10:46.437Z,8.88
2023-05-17T06:13:14.870Z,9.77
2023-05-17T06:15:42.954Z,10.13
2023-05-17T06:18:11.082Z,15.20
2023-05-17T06:20:39.102Z,7.90
2023-05-17T06:23:07.110Z,11.40
2023-05-17T06:25:35.194Z,9.40
2023-05-17T06:28:04.525Z,10.13
2023-05-17T06:30:32.792Z,6.80
2023-05-17T06:33:01.471Z,9.13
2023-05-17T06:35:35.198Z,8.35
2023-05-17T06:38:05.989Z,9.60
2023-05-17T06:40:34.416Z,9.35
2023-05-17T06:43:02.520Z,11.18
2023-05-17T06:45:30.489Z,9.60
2023-05-17T06:47:58.504Z,9.27
2023-05-17T06:50:28.730Z,9.85
2023-05-17T06:52:56.911Z,11.82
2023-05-17T06:55:24.875Z,12.38
2023-05-17T06:57:52.773Z,10.35
2023-05-17T07:00:21.720Z,12.10
2023-05-17T07:02:50.513Z,13.68
2023-05-17T07:05:18.782Z,11.95
2023-05-17T07:07:49.847Z,11.45
2023-05-17T07:10:17.810Z,11.68
2023-05-17T07:12:45.812Z,10.50
2023-05-17T07:15:13.764Z,10.77
2023-05-17T07:17:41.899Z,11.18
2023-05-17T07:20:10.538Z,11.32
2023-05-17T07:22:41.596Z,12.00
2023-05-17T07:25:10.918Z,13.48
2023-05-17T07:27:38.914Z,11.82
2023-05-17T07:30:07.875Z,11.07
2023-05-17T07:32:36.035Z,11.65
2023-05-17T07:35:04.067Z,13.23
2023-05-17T07:37:33.548Z,14.35
2023-05-17T07:40:01.507Z,10.48
2023-05-17T07:42:29.984Z,14.65
2023-05-17T07:44:58.058Z,14.63
2023-05-17T07:47:26.167Z,14.00
2023-05-17T07:49:54.111Z,14.38
2023-05-17T07:52:22.348Z,13.90
2023-05-17T07:54:50.287Z,16.15
2023-05-17T07:57:18.857Z,17.73
2023-05-17T07:59:46.916Z,18.33
2023-05-17T08:02:19.315Z,15.52
2023-05-17T08:04:47.765Z,17.15
2023-05-17T08:07:15.834Z,16.38
2023-05-17T08:09:45.626Z,15.35
2023-05-17T08:12:13.570Z,14.57
2023-05-17T08:14:41.909Z,17.25
2023-05-17T08:17:10.727Z,15.82
2023-05-17T08:19:39.167Z,11.95
2023-05-17T08:22:07.214Z,14.05
2023-05-17T08:24:36.188Z,11.88
2023-05-17T08:27:04.571Z,12.45
2023-05-17T08:29:32.447Z,11.20
2023-05-17T08:32:01.296Z,12.45
2023-05-17T08:34:29.342Z,14.70
2023-05-17T08:36:57.425Z,10.25
2023-05-17T08:39:25.649Z,11.13
2023-05-17T08:41:54.020Z,10.70
2023-05-17T08:44:22.058Z,9.43
2023-05-17T08:46:53.938Z,9.32
2023-05-17T08:49:25.982Z,9.15
2023-05-17T08:51:54.777Z,9.30
2023-05-17T08:54:22.903Z,10.07
2023-05-17T08:56:54.663Z,12.43
2023-05-17T08:59:23.268Z,10.10
2023-05-17T09:01:54.734Z,9.27
2023-05-17T09:04:24.592Z,9.35
2023-05-17T09:06:52.677Z,7.40
2023-05-17T09:09:20.860Z,7.75
2023-05-17T09:11:49.275Z,7.28
2023-05-17T09:14:17.726Z,10.25
2023-05-17T09:16:45.806Z,6.75
2023-05-17T09:19:18.072Z,6.57
2023-05-17T09:21:49.180Z,6.68
2023-05-17T09:24:20.410Z,10.30
2023-05-17T09:26:48.317Z,8.00
2023-05-17T09:29:17.268Z,7.55
2023-05-17T09:31:45.565Z,7.55
2023-05-17T09:34:18.313Z,7.18
2023-05-17T09:36:46.365Z,10.43
2023-05-17T09:39:15.385Z,11.40
2023-05-17T09:41:50.122Z,8.45
2023-05-17T09:44:18.123Z,9.88
2023-05-17T09:46:48.202Z,6.60
2023-05-17T09:49:17.752Z,6.75
2023-05-17T09:51:48.679Z,5.38
2023-05-17T09:54:18.068Z,8.70
2023-05-17T09:56:54.976Z,10.02
2023-05-17T09:59:26.104Z,5.93
2023-05-17T10:01:54.733Z,4.82
2023-05-17T10:04:29.654Z,3.17
2023-05-17T10:07:00.465Z,4.78
2023-05-17T10:09:34.690Z,4.75
2023-05-17T10:12:03.543Z,3.15
2023-05-17T10:14:32.868Z,4.85
2023-05-17T10:17:03.351Z,8.95
2023-05-17T10:19:32.089Z,5.22
2023-05-17T10:22:11.581Z,5.93
2023-05-17T10:24:49.147Z,5.90
2023-05-17T10:27:19.193Z,4.97
2023-05-17T10:29:50.375Z,4.00
2023-05-17T10:32:23.702Z,5.57
2023-05-17T10:35:02.144Z,4.85
2023-05-17T10:37:40.349Z,4.85
2023-05-17T10:40:14.087Z,5.65
2023-05-17T10:42:45.445Z,5.75
2023-05-17T10:45:14.013Z,3.50
2023-05-17T10:47:43.368Z,2.72
2023-05-17T10:50:15.783Z,3.30
2023-05-17T10:52:48.641Z,2.00
2023-05-17T10:55:46.301Z,1.85
2023-05-17T10:58:20.181Z,3.28
2023-05-17T11:00:55.854Z,7.25
2023-05-17T11:03:30.505Z,2.70
2023-05-17T11:06:12.949Z,2.45
2023-05-17T11:09:04.249Z,1.90
2023-05-17T11:11:32.357Z,1.35
2023-05-17T11:14:04.649Z,1.52
2023-05-17T11:16:38.080Z,1.70
2023-05-17T11:19:11.637Z,1.23
2023-05-17T11:21:49.424Z,0.82
2023-05-17T11:24:27.051Z,1.77
2023-05-17T11:26:56.472Z,0.75
2023-05-17T11:29:31.220Z,1.27
2023-05-17T11:31:59.430Z,0.75
2023-05-17T11:34:27.918Z,1.10
2023-05-17T11:36:56.699Z,0.57
2023-05-17T11:39:25.583Z,1.08
2023-05-17T11:41:55.815Z,1.23
2023-05-17T11:44:26.047Z,0.60
2023-05-17T11:47:10.162Z,1.08
2023-05-17T11:49:41.778Z,0.98
2023-05-17T11:52:09.939Z,0.55
2023-05-17T11:54:41.799Z,3.05
2023-05-17T11:57:13.424Z,0.25
2023-05-17T11:59:41.789Z,2.13
2023-05-17T12:02:10.500Z,0.52
2023-05-17T12:04:40.097Z,3.45
2023-05-17T12:07:11.746Z,0.85
2023-05-17T12:09:44.921Z,0.98
2023-05-17T12:12:12.886Z,1.90
2023-05-17T12:14:44.278Z,1.67
2023-05-17T12:17:18.067Z,2.50
2023-05-17T12:19:46.328Z,0.90
2023-05-17T12:22:14.907Z,1.13
2023-05-17T12:24:43.327Z,2.03
2023-05-17T12:27:11.945Z,0.77
2023-05-17T12:29:40.269Z,1.95
2023-05-17T12:32:10.461Z,1.73
2023-05-17T12:34:38.665Z,1.52
2023-05-17T12:37:11.039Z,2.38
2023-05-17T12:39:40.650Z,0.90
2023-05-17T12:42:09.599Z,0.60
2023-05-17T12:44:37.634Z,1.13
2023-05-17T12:47:05.818Z,0.98
2023-05-17T12:49:39.123Z,0.70
2023-05-17T12:52:07.884Z,2.35
2023-05-17T12:54:35.867Z,1.75
2023-05-17T12:57:13.013Z,1.60
2023-05-17T12:59:52.989Z,1.65
2023-05-17T13:02:21.797Z,2.88
2023-05-17T13:04:50.024Z,6.15
2023-05-17T13:07:25.148Z,1.38
2023-05-17T13:09:54.260Z,1.73
2023-05-17T13:12:25.832Z,1.20
2023-05-17T13:14:55.093Z,1.83
2023-05-17T13:17:37.128Z,2.30
2023-05-17T13:20:10.515Z,2.53
2023-05-17T13:22:50.054Z,2.28
2023-05-17T13:25:18.776Z,4.10
2023-05-17T13:27:49.091Z,3.50
2023-05-17T13:30:17.412Z,2.17
2023-05-17T13:32:47.649Z,1.90
2023-05-17T13:35:16.067Z,1.40
2023-05-17T13:37:44.067Z,1.90
2023-05-17T13:40:12.604Z,3.03
2023-05-17T13:42:41.290Z,1.98
2023-05-17T13:45:09.998Z,2.38
2023-05-17T13:47:38.186Z,1.55
2023-05-17T13:50:06.868Z,0.68
2023-05-17T13:52:34.822Z,1.75
2023-05-17T13:55:02.761Z,1.33
2023-05-17T13:57:32.321Z,0.82
2023-05-17T14:00:05.713Z,1.73
2023-05-17T14:02:34.306Z,2.78
2023-05-17T14:05:02.620Z,2.58
2023-05-17T14:07:30.728Z,0.95
2023-05-17T14:09:59.504Z,1.35
2023-05-17T14:12:27.760Z,1.52
2023-05-17T14:14:56.117Z,1.42
2023-05-17T14:17:24.130Z,0.73
2023-05-17T14:19:52.824Z,1.83
2023-05-17T14:22:21.378Z,1.42
2023-05-17T14:24:49.321Z,4.68
2023-05-17T14:27:17.365Z,1.25
2023-05-17T14:29:45.276Z,0.60
2023-05-17T14:32:14.325Z,0.88
2023-05-17T14:34:42.260Z,1.27
2023-05-17T14:37:10.558Z,2.72
2023-05-17T14:39:38.503Z,0.98
2023-05-17T14:42:06.703Z,1.90
2023-05-17T14:44:39.284Z,1.45
2023-05-17T14:47:08.554Z,1.67
2023-05-17T14:49:37.161Z,2.10
2023-05-17T14:52:05.513Z,1.27
2023-05-17T14:54:33.672Z,0.40
2023-05-17T14:57:02.175Z,0.68
2023-05-17T14:59:31.376Z,0.40
2023-05-17T15:02:00.750Z,0.85
2023-05-17T15:04:29.817Z,1.83
2023-05-17T15:06:58.177Z,0.85
2023-05-17T15:09:26.251Z,0.63
2023-05-17T15:11:54.734Z,0.90
2023-05-17T15:14:24.179Z,1.08
2023-05-17T15:16:57.031Z,1.08
2023-05-17T15:19:50.435Z,0.55
2023-05-17T15:22:18.527Z,0.98
2023-05-17T15:24:46.846Z,3.10
2023-05-17T15:27:16.617Z,1.45
2023-05-17T15:29:44.813Z,0.77
2023-05-17T15:32:12.760Z,1.27
2023-05-17T15:34:41.426Z,1.00
2023-05-17T15:37:09.425Z,1.27
2023-05-17T15:39:37.326Z,1.55
2023-05-17T15:42:06.148Z,1.52
2023-05-17T15:44:34.316Z,0.80
2023-05-17T15:47:03.450Z,2.25
2023-05-17T15:49:31.838Z,0.77
2023-05-17T15:51:59.954Z,2.67
2023-05-17T15:54:27.825Z,1.02
2023-05-17T15:56:56.181Z,1.73
2023-05-17T15:59:24.154Z,2.75
2023-05-17T16:01:52.128Z,0.65
2023-05-17T16:04:20.107Z,1.67
2023-05-17T16:06:48.355Z,1.02
2023-05-17T16:09:17.016Z,1.90
2023-05-17T16:11:45.155Z,1.58
2023-05-17T16:14:13.150Z,1.52
2023-05-17T16:16:41.855Z,2.10
2023-05-17T16:19:10.343Z,0.57
2023-05-17T16:21:39.098Z,0.95
2023-05-17T16:24:07.197Z,1.25
2023-05-17T16:26:35.676Z,4.68
2023-05-17T16:29:03.537Z,1.45
2023-05-17T16:31:31.608Z,1.80
2023-05-17T16:34:00.331Z,1.90
2023-05-17T16:36:28.677Z,2.78
2023-05-17T16:38:56.855Z,2.58
2023-05-17T16:41:26.030Z,1.95
2023-05-17T16:43:54.201Z,3.35
2023-05-17T16:46:25.024Z,0.70
2023-05-17T16:48:54.079Z,1.65
2023-05-17T16:51:22.056Z,0.70
2023-05-17T16:53:50.165Z,2.05
2023-05-17T16:56:18.337Z,1.00
2023-05-17T16:58:46.814Z,1.95
2023-05-17T17:01:14.988Z,2.95
2023-05-17T17:03:43.260Z,0.80
2023-05-17T17:06:11.482Z,1.58
2023-05-17T17:08:39.603Z,2.47
2023-05-17T17:11:07.602Z,1.00
2023-05-17T17:13:35.972Z,1.15
2023-05-17T17:16:04.709Z,1.90
2023-05-17T17:18:32.801Z,1.63
2023-05-17T17:21:00.735Z,4.35
2023-05-17T17:23:28.906Z,1.05
2023-05-17T17:26:00.073Z,1.98
2023-05-17T17:28:28.231Z,0.82
2023-05-17T17:30:56.245Z,1.13
2023-05-17T17:33:24.264Z,1.08
2023-05-17T17:35:52.307Z,0.85
2023-05-17T17:38:20.664Z,0.95
2023-05-17T17:40:49.425Z,1.35
2023-05-17T17:43:17.436Z,1.42
2023-05-17T17:45:47.139Z,1.25
2023-05-17T17:48:15.184Z,1.65
2023-05-17T17:50:43.228Z,0.68
2023-05-17T17:53:11.259Z,1.95
2023-05-17T17:55:39.147Z,1.63
2023-05-17T17:58:07.459Z,2.38
2023-05-17T18:00:35.774Z,0.88
2023-05-17T18:03:03.909Z,0.68
2023-05-17T18:05:31.976Z,2.80
2023-05-17T18:07:59.912Z,1.33
2023-05-17T18:10:28.725Z,0.75
2023-05-17T18:12:56.908Z,1.58
2023-05-17T18:15:25.213Z,0.63
2023-05-17T18:17:54.992Z,0.75
2023-05-17T18:20:22.985Z,0.75
2023-05-17T18:22:51.046Z,0.98
2023-05-17T18:25:19.136Z,1.25
2023-05-17T18:27:47.268Z,0.73
2023-05-17T18:30:15.338Z,1.08
2023-05-17T18:32:43.530Z,0.95
2023-05-17T18:35:11.843Z,0.95
2023-05-17T18:37:39.855Z,1.40
2023-05-17T18:40:08.406Z,1.85
2023-05-17T18:42:36.587Z,1.17
2023-05-17T18:45:04.951Z,1.33
2023-05-17T18:47:32.873Z,1.75
2023-05-17T18:50:01.202Z,1.10
2023-05-17T18:52:29.372Z,3.75
2023-05-17T18:54:57.454Z,1.30
2023-05-17T18:57:25.445Z,1.65
2023-05-17T18:59:53.801Z,2.15
2023-05-17T19:02:21.828Z,1.92
2023-05-17T19:04:50.504Z,4.40
2023-05-17T19:07:18.880Z,2.83
2023-05-17T19:09:46.982Z,1.77
2023-05-17T19:12:14.902Z,3.35
2023-05-17T19:14:43.067Z,1.55
2023-05-17T19:17:11.368Z,2.90
2023-05-17T19:19:39.512Z,3.38
2023-05-17T19:22:07.534Z,3.40
2023-05-17T19:24:35.885Z,2.30
2023-05-17T19:27:04.110Z,1.20
2023-05-17T19:29:33.635Z,3.05
2023-05-17T19:32:01.899Z,5.68
2023-05-17T19:34:31.151Z,2.65
2023-05-17T19:36:59.602Z,2.80
2023-05-17T19:39:28.206Z,1.02
2023-05-17T19:41:56.603Z,3.00
2023-05-17T19:44:25.624Z,1.60
2023-05-17T19:47:03.248Z,1.70
2023-05-17T19:49:32.249Z,1.77
2023-05-17T19:52:03.103Z,3.30
2023-05-17T19:54:33.584Z,1.67
2023-05-17T19:57:03.193Z,2.22
2023-05-17T19:59:32.887Z,3.03
2023-05-17T20:06:18.861Z,2.28
2023-05-17T20:08:50.483Z,1.08
2023-05-17T20:11:18.907Z,1.17
2023-05-17T20:13:47.837Z,0.80
2023-05-17T20:16:16.961Z,1.75
2023-05-17T20:18:45.794Z,2.45
2023-05-17T20:21:23.612Z,2.95
2023-05-17T20:23:57.022Z,2.65
2023-05-17T20:26:27.352Z,3.35
2023-05-17T20:28:56.770Z,2.63
2023-05-17T20:31:24.897Z,4.07
2023-05-17T20:33:53.845Z,4.65
2023-05-17T20:36:21.978Z,2.67
2023-05-17T20:38:50.021Z,1.30
2023-05-17T20:41:18.411Z,2.88
2023-05-17T20:43:47.445Z,2.63
2023-05-17T20:46:17.517Z,3.60
2023-05-17T20:48:47.898Z,1.60
2023-05-17T20:51:17.785Z,1.30
2023-05-17T20:53:46.686Z,1.33
2023-05-17T20:56:14.692Z,1.60
2023-05-17T20:58:43.727Z,1.45
2023-05-17T21:01:11.893Z,1.63
2023-05-17T21:03:40.046Z,3.05
2023-05-17T21:06:08.470Z,5.80
2023-05-17T21:08:36.534Z,4.30
2023-05-17T21:11:04.780Z,1.50
2023-05-17T21:13:32.737Z,1.17
2023-05-17T21:16:00.665Z,1.75
2023-05-17T21:18:28.642Z,4.25
2023-05-17T21:20:56.721Z,3.35
2023-05-17T21:23:24.584Z,1.98
2023-05-17T21:25:52.539Z,1.75
2023-05-17T21:28:20.800Z,1.20
2023-05-17T21:30:48.763Z,3.20
2023-05-17T21:33:16.688Z,2.63
2023-05-17T21:35:44.551Z,2.85
2023-05-17T21:38:12.479Z,1.05
2023-05-17T21:40:41.059Z,1.92
2023-05-17T21:43:10.082Z,1.48
2023-05-17T21:45:38.944Z,2.50
2023-05-17T21:48:06.999Z,1.13
2023-05-17T21:50:35.362Z,1.95
2023-05-17T21:53:03.411Z,2.15
2023-05-17T21:55:40.981Z,2.42
2023-05-17T21:58:21.356Z,1.88
2023-05-17T22:00:49.295Z,2.88
2023-05-17T22:03:17.350Z,2.45
2023-05-17T22:05:45.361Z,2.17
2023-05-17T22:08:13.196Z,2.53
2023-05-17T22:10:42.273Z,1.73
2023-05-17T22:13:12.528Z,3.67
2023-05-17T22:15:41.777Z,1.38
2023-05-17T22:18:12.582Z,3.15
2023-05-17T22:20:40.818Z,4.60
2023-05-17T22:23:09.128Z,1.85
2023-05-17T22:25:37.231Z,2.40
2023-05-17T22:28:05.164Z,1.50
2023-05-17T22:30:33.345Z,7.30
2023-05-17T22:33:01.726Z,4.32
2023-05-17T22:35:29.731Z,2.60
2023-05-17T22:37:57.718Z,3.50
2023-05-17T22:40:25.872Z,3.20
2023-05-17T22:42:54.461Z,2.45
2023-05-17T22:45:22.398Z,1.73
2023-05-17T22:47:50.836Z,2.03
2023-05-17T22:50:19.373Z,4.43
2023-05-17T22:52:47.300Z,2.72
2023-05-17T22:55:15.218Z,2.60
2023-05-17T22:57:43.178Z,2.20
2023-05-17T23:00:11.664Z,1.80
2023-05-17T23:02:39.815Z,6.32
2023-05-17T23:05:08.257Z,1.95
2023-05-17T23:07:39.757Z,1.77
2023-05-17T23:10:10.298Z,1.70
2023-05-17T23:12:38.859Z,2.42
2023-05-17T23:15:08.047Z,2.83
2023-05-17T23:17:36.620Z,2.75
2023-05-17T23:20:11.290Z,2.75
2023-05-17T23:22:39.811Z,2.00
2023-05-17T23:25:08.159Z,4.50
2023-05-17T23:27:36.573Z,4.38
2023-05-17T23:30:05.750Z,4.03
2023-05-17T23:32:34.218Z,1.85
2023-05-17T23:35:05.236Z,1.50
2023-05-17T23:37:34.836Z,2.47
2023-05-17T23:40:07.183Z,1.10
2023-05-17T23:42:35.704Z,1.17
2023-05-17T23:45:04.191Z,0.88
2023-05-17T23:47:33.790Z,0.63
2023-05-17T23:50:03.168Z,1.83
2023-05-17T23:52:32.842Z,1.15
2023-05-17T23:55:01.800Z,2.05
2023-05-17T23:57:29.983Z,1.25
2023-05-17T23:59:57.952Z,0.82
